createdAt,value
2022-09-07T00:00:41.323Z,76.13
2022-09-07T00:03:09.442Z,76.26
2022-09-07T00:05:44.196Z,76.50
2022-09-07T00:08:12.325Z,75.53
2022-09-07T00:10:39.485Z,75.16
2022-09-07T00:13:07.543Z,76.78
2022-09-07T00:15:39.411Z,77.21
2022-09-07T00:18:06.656Z,76.79
2022-09-07T00:20:33.863Z,76.92
2022-09-07T00:23:01.453Z,77.07
2022-09-07T00:25:31.769Z,76.36
2022-09-07T00:27:59.664Z,75.74
2022-09-07T00:30:27.175Z,75.63
2022-09-07T00:32:54.390Z,75.62
2022-09-07T00:35:21.917Z,75.69
2022-09-07T00:37:49.503Z,75.40
2022-09-07T00:40:16.750Z,75.81
2022-09-07T00:42:43.972Z,75.86
2022-09-07T00:45:18.867Z,76.13
2022-09-07T00:47:59.402Z,75.55
2022-09-07T00:50:29.954Z,75.70
2022-09-07T00:53:00.882Z,75.69
2022-09-07T00:55:29.943Z,75.36
2022-09-07T00:57:57.793Z,75.35
2022-09-07T01:00:25.398Z,76.62
2022-09-07T01:02:55.972Z,76.73
2022-09-07T01:05:43.859Z,76.93
2022-09-07T01:08:12.345Z,76.33
2022-09-07T01:10:39.624Z,76.02
2022-09-07T01:13:07.053Z,75.94
2022-09-07T01:15:40.761Z,76.40
2022-09-07T01:18:11.209Z,75.90
2022-09-07T01:20:44.778Z,75.34
2022-09-07T01:23:27.404Z,75.66
2022-09-07T01:26:10.166Z,74.92
2022-09-07T01:28:39.056Z,75.35
2022-09-07T01:31:15.568Z,75.24
2022-09-07T01:33:42.929Z,75.64
2022-09-07T01:36:16.385Z,74.90
2022-09-07T01:38:53.341Z,74.63
2022-09-07T01:41:23.236Z,74.90
2022-09-07T01:43:50.381Z,74.60
2022-09-07T01:46:32.077Z,75.43
2022-09-07T01:49:06.075Z,75.99
2022-09-07T01:51:34.866Z,76.13
2022-09-07T01:54:13.674Z,76.22
2022-09-07T01:56:45.862Z,75.61
2022-09-07T01:59:13.418Z,76.00
2022-09-07T02:01:45.948Z,74.94
2022-09-07T02:04:18.883Z,75.50
2022-09-07T02:06:58.712Z,75.23
2022-09-07T02:09:32.000Z,75.14
2022-09-07T02:12:03.346Z,75.79
2022-09-07T02:14:32.477Z,75.34
2022-09-07T02:16:59.564Z,76.51
2022-09-07T02:19:28.998Z,75.83
2022-09-07T02:21:59.629Z,75.64
2022-09-07T02:24:31.446Z,75.64
2022-09-07T02:27:00.538Z,75.08
2022-09-07T02:29:30.902Z,73.90
2022-09-07T02:31:58.651Z,75.17
2022-09-07T02:34:25.948Z,75.71
2022-09-07T02:36:54.084Z,75.83
2022-09-07T02:39:21.621Z,75.53
2022-09-07T02:41:48.741Z,75.41
2022-09-07T02:44:19.110Z,75.43
2022-09-07T02:47:01.172Z,75.42
2022-09-07T02:49:47.235Z,75.66
2022-09-07T02:52:24.076Z,75.86
2022-09-07T02:54:51.345Z,74.89
2022-09-07T02:57:37.789Z,75.80
2022-09-07T03:00:07.579Z,76.14
2022-09-07T03:02:40.569Z,76.28
2022-09-07T03:05:15.130Z,76.26
2022-09-07T03:07:47.909Z,77.08
2022-09-07T03:10:16.271Z,76.88
2022-09-07T03:12:50.611Z,77.66
2022-09-07T03:15:20.568Z,78.31
2022-09-07T03:17:48.385Z,77.53
2022-09-07T03:20:18.984Z,76.73
2022-09-07T03:22:48.017Z,76.85
2022-09-07T03:25:15.773Z,76.54
2022-09-07T03:27:43.425Z,76.00
2022-09-07T03:30:14.414Z,75.65
2022-09-07T03:32:44.387Z,75.53
2022-09-07T03:35:14.251Z,75.90
2022-09-07T03:37:42.219Z,75.71
2022-09-07T03:40:11.219Z,77.08
2022-09-07T03:42:38.539Z,77.21
2022-09-07T03:45:07.209Z,77.00
2022-09-07T03:47:35.001Z,77.22
2022-09-07T03:50:02.333Z,76.45
2022-09-07T03:52:30.288Z,77.81
2022-09-07T03:54:57.607Z,76.42
2022-09-07T03:57:24.874Z,75.56
2022-09-07T03:59:52.431Z,75.36
2022-09-07T04:02:19.748Z,76.29
2022-09-07T04:04:47.500Z,76.00
2022-09-07T04:07:15.218Z,76.40
2022-09-07T04:09:42.680Z,75.41
2022-09-07T04:12:10.226Z,75.69
2022-09-07T04:14:37.441Z,75.68
2022-09-07T04:17:04.781Z,75.27
2022-09-07T04:19:32.446Z,74.70
2022-09-07T04:21:59.691Z,75.08
2022-09-07T04:24:27.016Z,75.70
2022-09-07T04:26:54.622Z,76.40
2022-09-07T04:29:21.854Z,76.75
2022-09-07T04:31:49.148Z,76.96
2022-09-07T04:34:16.731Z,77.31
2022-09-07T04:36:44.012Z,76.40
2022-09-07T04:39:11.986Z,76.46
2022-09-07T04:41:40.999Z,76.87
2022-09-07T04:44:08.425Z,76.92
2022-09-07T04:46:36.881Z,75.99
2022-09-07T04:49:06.268Z,76.39
2022-09-07T04:51:33.641Z,76.45
2022-09-07T04:54:02.094Z,76.53
2022-09-07T04:56:30.434Z,76.91
2022-09-07T04:58:57.948Z,76.78
2022-09-07T05:01:26.340Z,77.16
2022-09-07T05:03:53.989Z,76.82
2022-09-07T05:06:22.453Z,77.17
2022-09-07T05:08:50.929Z,77.44
2022-09-07T05:11:19.725Z,77.41
2022-09-07T05:13:47.244Z,78.83
2022-09-07T05:16:16.510Z,77.60
2022-09-07T05:18:44.678Z,77.37
2022-09-07T05:21:13.505Z,77.72
2022-09-07T05:23:41.480Z,78.07
2022-09-07T05:26:09.479Z,78.85
2022-09-07T05:28:37.431Z,78.22
2022-09-07T05:36:35.856Z,76.97
2022-09-07T05:39:04.321Z,76.63
2022-09-07T05:41:31.920Z,76.31
2022-09-07T05:46:47.870Z,75.79
2022-09-07T05:49:15.167Z,75.53
2022-09-07T05:51:42.458Z,75.32
2022-09-07T05:54:10.915Z,75.45
2022-09-07T05:56:38.237Z,74.38
2022-09-07T05:59:05.596Z,74.42
2022-09-07T06:01:35.371Z,74.45
2022-09-07T06:04:03.186Z,73.97
2022-09-07T06:06:30.508Z,74.61
2022-09-07T06:08:57.910Z,74.96
2022-09-07T06:11:26.364Z,75.78
2022-09-07T06:13:53.736Z,74.00
2022-09-07T06:16:21.422Z,74.39
2022-09-07T06:18:49.898Z,72.81
2022-09-07T06:21:21.219Z,72.08
2022-09-07T06:23:49.347Z,70.92
2022-09-07T06:26:17.682Z,69.73
2022-09-07T06:28:48.870Z,68.75
2022-09-07T06:31:21.090Z,67.81
2022-09-07T06:33:48.978Z,66.58
2022-09-07T06:36:17.988Z,65.65
2022-09-07T06:38:45.616Z,64.43
2022-09-07T06:44:00.374Z,63.66
2022-09-07T06:49:15.715Z,63.91
2022-09-07T06:51:43.094Z,63.79
2022-09-07T06:57:00.370Z,63.23
2022-09-07T06:59:27.722Z,62.76
2022-09-07T07:01:54.927Z,61.31
2022-09-07T07:04:22.602Z,63.03
2022-09-07T07:06:49.847Z,62.64
2022-09-07T07:09:17.075Z,61.04
2022-09-07T07:11:47.577Z,61.55
2022-09-07T07:14:15.641Z,60.28
2022-09-07T07:16:43.218Z,59.87
2022-09-07T07:19:12.160Z,58.69
2022-09-07T07:22:03.543Z,59.30
2022-09-07T07:24:27.063Z,57.66
2022-09-07T07:26:54.334Z,56.11
2022-09-07T07:29:23.907Z,57.57
2022-09-07T07:31:52.890Z,58.25
2022-09-07T07:34:20.538Z,58.51
2022-09-07T07:36:47.838Z,58.20
2022-09-07T07:42:03.407Z,57.56
2022-09-07T07:44:33.120Z,56.99
2022-09-07T07:47:00.381Z,57.63
2022-09-07T07:49:27.625Z,57.01
2022-09-07T07:54:43.587Z,54.39
2022-09-07T07:57:12.001Z,54.59
2022-09-07T07:59:39.680Z,56.44
2022-09-07T08:02:09.076Z,56.14
2022-09-07T08:04:37.045Z,53.38
2022-09-07T08:07:10.079Z,53.02
2022-09-07T08:09:38.939Z,54.24
2022-09-07T08:12:06.211Z,53.14
2022-09-07T08:14:33.542Z,53.84
2022-09-07T08:17:01.082Z,52.98
2022-09-07T08:19:28.262Z,53.55
2022-09-07T08:21:55.378Z,52.85
2022-09-07T08:24:23.109Z,53.80
2022-09-07T08:26:50.283Z,54.04
2022-09-07T08:29:17.441Z,53.56
2022-09-07T08:31:45.020Z,51.17
2022-09-07T08:34:12.328Z,53.32
2022-09-07T08:36:39.517Z,50.65
2022-09-07T08:39:07.250Z,49.32
2022-09-07T08:41:34.474Z,49.17
2022-09-07T08:44:10.738Z,48.23
2022-09-07T08:46:57.218Z,49.06
2022-09-07T08:49:30.969Z,48.61
2022-09-07T08:52:04.008Z,47.49
2022-09-07T08:54:31.316Z,48.57
2022-09-07T09:00:14.420Z,47.62
2022-09-07T09:02:44.358Z,50.14
2022-09-07T09:05:31.127Z,49.63
2022-09-07T09:08:06.794Z,48.85
2022-09-07T09:10:34.082Z,49.05
2022-09-07T09:13:13.809Z,49.59
2022-09-07T09:15:59.552Z,50.77
2022-09-07T09:18:33.462Z,49.88
2022-09-07T09:21:00.913Z,50.57
2022-09-07T09:23:34.644Z,49.83
2022-09-07T09:26:07.517Z,51.01
2022-09-07T09:28:35.521Z,47.93
2022-09-07T09:31:03.921Z,49.45
2022-09-07T09:33:31.271Z,48.72
2022-09-07T09:36:02.095Z,48.28
2022-09-07T09:38:34.554Z,48.70
2022-09-07T09:41:09.788Z,47.54
2022-09-07T09:43:39.647Z,48.23
2022-09-07T09:46:19.727Z,47.77
2022-09-07T09:48:55.765Z,46.01
2022-09-07T09:54:24.107Z,46.11
2022-09-07T09:56:52.427Z,45.80
2022-09-07T10:05:29.874Z,44.99
2022-09-07T10:07:57.251Z,45.00
2022-09-07T10:10:25.920Z,44.95
2022-09-07T10:12:54.816Z,44.74
2022-09-07T10:15:27.187Z,44.88
2022-09-07T10:17:54.888Z,44.46
2022-09-07T10:20:22.050Z,45.21
2022-09-07T10:22:52.384Z,44.56
2022-09-07T10:25:28.150Z,45.32
2022-09-07T10:28:03.761Z,43.97
2022-09-07T10:30:35.612Z,43.30
2022-09-07T10:33:11.064Z,41.31
2022-09-07T10:35:49.190Z,43.92
2022-09-07T10:38:21.371Z,43.01
2022-09-07T10:41:00.013Z,43.08
2022-09-07T10:43:39.531Z,41.64
2022-09-07T10:46:56.229Z,42.57
2022-09-07T10:49:25.444Z,40.05
2022-09-07T10:52:00.111Z,40.10
2022-09-07T10:54:30.923Z,39.83
2022-09-07T10:57:04.708Z,40.63
2022-09-07T11:05:50.842Z,41.33
2022-09-07T11:08:18.702Z,40.50
2022-09-07T11:10:56.787Z,40.73
2022-09-07T11:13:27.211Z,39.94
2022-09-07T11:15:59.476Z,39.76
2022-09-07T11:18:30.437Z,38.73
2022-09-07T11:21:01.476Z,39.32
2022-09-07T11:23:39.064Z,39.69
2022-09-07T11:26:12.308Z,40.25
2022-09-07T11:28:40.470Z,38.71
2022-09-07T11:31:11.641Z,39.52
2022-09-07T11:36:46.712Z,40.37
2022-09-07T11:39:18.706Z,40.45
2022-09-07T11:45:19.690Z,41.30
2022-09-07T11:47:56.219Z,40.63
2022-09-07T11:50:24.011Z,40.81
2022-09-07T11:52:54.400Z,39.72
2022-09-07T11:55:25.708Z,39.97
2022-09-07T11:58:19.735Z,39.14
2022-09-07T12:01:09.258Z,38.29
2022-09-07T12:03:49.892Z,36.59
2022-09-07T12:06:26.543Z,38.84
2022-09-07T12:09:00.996Z,38.51
2022-09-07T12:11:47.172Z,36.77
2022-09-07T12:14:25.462Z,37.84
2022-09-07T12:16:55.913Z,36.88
2022-09-07T12:19:25.018Z,37.99
2022-09-07T12:21:52.225Z,37.07
2022-09-07T12:24:38.425Z,36.90
2022-09-07T12:27:09.456Z,37.27
2022-09-07T12:29:37.453Z,38.04
2022-09-07T12:32:53.630Z,38.69
2022-09-07T12:34:53.683Z,37.41
2022-09-07T12:37:27.281Z,36.84
2022-09-07T12:40:13.858Z,36.66
2022-09-07T12:42:41.161Z,37.69
2022-09-07T12:45:27.569Z,37.07
2022-09-07T12:47:59.266Z,36.44
2022-09-07T12:50:42.410Z,36.01
2022-09-07T12:53:09.681Z,36.94
2022-09-07T12:58:43.287Z,35.21
2022-09-07T13:01:21.772Z,34.61
2022-09-07T13:04:07.994Z,36.57
2022-09-07T13:07:03.747Z,36.24
2022-09-07T13:09:38.528Z,35.56
2022-09-07T13:15:32.110Z,36.90
2022-09-07T13:17:59.938Z,36.13
2022-09-07T13:20:34.845Z,36.60
2022-09-07T13:23:08.559Z,36.66
2022-09-07T13:25:43.078Z,36.85
2022-09-07T13:28:13.905Z,38.40
2022-09-07T13:30:50.381Z,37.78
2022-09-07T13:33:24.404Z,37.35
2022-09-07T13:35:52.761Z,37.40
2022-09-07T13:38:20.770Z,38.05
2022-09-07T13:40:48.793Z,37.98
2022-09-07T13:43:24.011Z,38.05
2022-09-07T13:45:55.124Z,37.57
2022-09-07T13:48:32.258Z,37.14
2022-09-07T13:51:14.918Z,37.62
2022-09-07T13:54:01.019Z,36.88
2022-09-07T13:56:35.641Z,36.42
2022-09-07T13:59:12.257Z,36.73
2022-09-07T14:01:43.621Z,37.11
2022-09-07T14:04:17.668Z,37.21
2022-09-07T14:06:44.922Z,37.51
2022-09-07T14:09:17.222Z,37.62
2022-09-07T14:11:46.237Z,37.83
2022-09-07T14:14:16.969Z,37.47
2022-09-07T14:16:46.653Z,37.93
2022-09-07T14:19:37.571Z,37.32
2022-09-07T14:22:31.251Z,36.70
2022-09-07T14:25:01.534Z,35.32
2022-09-07T14:27:33.383Z,34.83
2022-09-07T14:30:19.443Z,34.99
2022-09-07T14:32:49.233Z,35.00
2022-09-07T14:35:18.632Z,33.95
2022-09-07T14:37:46.912Z,34.24
2022-09-07T14:40:24.666Z,33.15
2022-09-07T14:42:53.912Z,33.36
2022-09-07T14:45:31.944Z,32.98
2022-09-07T14:47:59.575Z,32.18
2022-09-07T14:50:41.225Z,31.60
2022-09-07T14:56:08.318Z,31.32
2022-09-07T14:58:36.087Z,31.98
2022-09-07T15:04:16.479Z,28.91
2022-09-07T15:09:38.114Z,30.08
2022-09-07T15:12:15.672Z,28.94
2022-09-07T15:14:43.337Z,28.50
2022-09-07T15:20:27.507Z,29.55
2022-09-07T15:22:55.931Z,28.55
2022-09-07T15:25:25.768Z,29.05
2022-09-07T15:27:53.909Z,28.11
2022-09-07T15:30:21.208Z,28.96
2022-09-07T15:32:49.481Z,29.48
2022-09-07T15:35:18.714Z,30.04
2022-09-07T15:38:02.756Z,29.19
2022-09-07T15:40:56.387Z,30.07
2022-09-07T15:43:28.493Z,29.86
2022-09-07T15:45:56.508Z,31.14
2022-09-07T15:48:25.261Z,32.53
2022-09-07T15:51:00.328Z,33.15
2022-09-07T15:56:16.539Z,31.88
2022-09-07T15:58:44.134Z,32.56
2022-09-07T16:03:59.516Z,34.69
2022-09-07T16:06:27.196Z,35.93
2022-09-07T16:08:55.242Z,37.40
2022-09-07T16:11:24.335Z,39.15
2022-09-07T16:14:01.725Z,40.71
2022-09-07T16:19:20.609Z,41.08
2022-09-07T16:21:48.450Z,42.10
2022-09-07T16:24:17.482Z,42.57
2022-09-07T16:26:44.999Z,42.45
2022-09-07T16:29:12.570Z,44.06
2022-09-07T16:32:44.099Z,43.98
2022-09-07T16:34:28.073Z,44.60
2022-09-07T16:36:55.338Z,44.86
2022-09-07T16:39:23.265Z,45.74
2022-09-07T16:41:51.011Z,46.04
2022-09-07T16:44:18.379Z,45.18
2022-09-07T16:46:45.541Z,45.79
2022-09-07T16:49:13.543Z,45.28
2022-09-07T16:51:40.705Z,45.17
2022-09-07T16:54:08.050Z,46.51
2022-09-07T16:56:39.104Z,45.92
2022-09-07T16:59:09.028Z,46.25
2022-09-07T17:01:40.825Z,46.63
2022-09-07T17:04:11.046Z,47.35
2022-09-07T17:06:39.786Z,50.30
2022-09-07T17:09:07.373Z,51.34
2022-09-07T17:11:35.604Z,52.44
2022-09-07T17:14:05.214Z,53.90
2022-09-07T17:16:33.921Z,54.95
2022-09-07T17:21:52.031Z,55.92
2022-09-07T17:24:19.731Z,55.53
2022-09-07T17:26:48.275Z,55.33
2022-09-07T17:29:15.883Z,56.56
2022-09-07T17:34:31.591Z,56.22
2022-09-07T17:37:00.625Z,57.27
2022-09-07T17:39:28.746Z,58.20
2022-09-07T17:41:57.079Z,58.09
2022-09-07T17:44:24.676Z,58.77
2022-09-07T17:46:51.887Z,59.44
2022-09-07T17:49:19.697Z,59.23
2022-09-07T17:51:47.064Z,59.67
2022-09-07T17:54:15.873Z,60.19
2022-09-07T17:56:44.280Z,60.21
2022-09-07T18:01:59.478Z,60.45
2022-09-07T18:04:28.296Z,60.13
2022-09-07T18:06:55.876Z,60.45
2022-09-07T18:09:23.403Z,59.77
2022-09-07T18:11:51.286Z,60.99
2022-09-07T18:14:21.773Z,61.03
2022-09-07T18:16:49.822Z,60.55
2022-09-07T18:19:18.353Z,61.00
2022-09-07T18:21:45.985Z,61.73
2022-09-07T18:24:17.059Z,61.44
2022-09-07T18:26:49.978Z,61.59
2022-09-07T18:29:36.760Z,61.67
2022-09-07T18:32:08.678Z,60.93
2022-09-07T18:34:37.079Z,60.64
2022-09-07T18:37:04.850Z,61.12
2022-09-07T18:39:33.817Z,61.90
2022-09-07T18:42:01.364Z,61.57
2022-09-07T18:47:23.291Z,62.50
2022-09-07T18:49:55.667Z,62.94
2022-09-07T18:55:12.674Z,63.03
2022-09-07T18:57:40.133Z,62.96
2022-09-07T19:00:09.184Z,63.57
2022-09-07T19:02:37.169Z,63.15
2022-09-07T19:07:52.947Z,64.80
2022-09-07T19:10:20.381Z,64.00
2022-09-07T19:12:47.859Z,63.78
2022-09-07T19:15:15.939Z,63.97
2022-09-07T19:17:43.198Z,63.80
2022-09-07T19:20:10.854Z,63.74
2022-09-07T19:22:39.177Z,64.24
2022-09-07T19:25:06.502Z,65.00
2022-09-07T19:27:34.143Z,65.32
2022-09-07T19:30:01.941Z,65.54
2022-09-07T19:32:29.220Z,65.72
2022-09-07T19:34:56.746Z,65.65
2022-09-07T19:37:25.984Z,64.87
2022-09-07T19:39:56.297Z,65.70
2022-09-07T19:42:24.567Z,66.35
2022-09-07T19:44:52.676Z,67.33
2022-09-07T19:47:20.256Z,67.75
2022-09-07T19:49:47.840Z,66.57
2022-09-07T19:52:15.637Z,66.63
2022-09-07T19:54:43.080Z,67.36
2022-09-07T19:57:10.696Z,68.97
2022-09-07T19:59:37.860Z,68.02
2022-09-07T20:02:06.326Z,67.11
2022-09-07T20:04:34.016Z,67.92
2022-09-07T20:07:01.545Z,67.92
2022-09-07T20:09:28.780Z,67.44
2022-09-07T20:11:56.398Z,66.96
2022-09-07T20:14:23.645Z,67.88
2022-09-07T20:16:52.079Z,68.78
2022-09-07T20:19:19.661Z,68.24
2022-09-07T20:21:48.300Z,68.15
2022-09-07T20:24:15.445Z,67.38
2022-09-07T20:26:42.951Z,67.30
2022-09-07T20:29:26.940Z,67.84
2022-09-07T20:31:59.911Z,68.33
2022-09-07T20:34:27.971Z,68.25
2022-09-07T20:36:56.985Z,69.29
2022-09-07T20:39:25.713Z,68.48
2022-09-07T20:41:53.036Z,68.68
2022-09-07T20:44:20.886Z,68.42
2022-09-07T20:46:48.126Z,67.32
2022-09-07T20:49:15.839Z,68.18
2022-09-07T20:51:43.414Z,68.51
2022-09-07T20:54:10.847Z,68.85
2022-09-07T20:56:38.087Z,68.53
2022-09-07T20:59:05.662Z,68.54
2022-09-07T21:01:34.447Z,68.53
2022-09-07T21:04:01.795Z,68.37
2022-09-07T21:06:29.924Z,68.72
2022-09-07T21:08:57.488Z,68.89
2022-09-07T21:11:26.133Z,68.64
2022-09-07T21:13:58.441Z,69.23
2022-09-07T21:16:26.258Z,69.05
2022-09-07T21:18:55.448Z,68.53
2022-09-07T21:21:23.962Z,67.92
2022-09-07T21:23:59.199Z,67.86
2022-09-07T21:26:27.477Z,68.24
2022-09-07T21:28:58.224Z,69.71
2022-09-07T21:31:25.489Z,70.59
2022-09-07T21:33:57.750Z,71.11
2022-09-07T21:36:25.116Z,70.47
2022-09-07T21:38:53.022Z,70.17
2022-09-07T21:41:20.969Z,69.97
2022-09-07T21:43:48.292Z,69.80
2022-09-07T21:46:17.428Z,70.26
2022-09-07T21:48:45.653Z,70.89
2022-09-07T21:51:13.877Z,69.22
2022-09-07T21:53:42.097Z,69.20
2022-09-07T21:56:18.562Z,68.94
2022-09-07T21:58:46.026Z,69.01
2022-09-07T22:01:14.527Z,69.45
2022-09-07T22:03:42.095Z,69.98
2022-09-07T22:06:09.548Z,69.81
2022-09-07T22:08:37.523Z,70.43
2022-09-07T22:11:16.246Z,70.29
2022-09-07T22:13:43.874Z,68.87
2022-09-07T22:16:12.131Z,69.55
2022-09-07T22:18:40.360Z,70.45
2022-09-07T22:21:08.986Z,70.54
2022-09-07T22:23:38.109Z,70.74
2022-09-07T22:26:06.176Z,70.50
2022-09-07T22:28:33.313Z,71.16
2022-09-07T22:31:11.925Z,71.16
2022-09-07T22:33:39.221Z,70.62
2022-09-07T22:36:11.473Z,70.42
2022-09-07T22:38:38.886Z,69.79
2022-09-07T22:41:07.478Z,69.87
2022-09-07T22:43:34.731Z,70.46
2022-09-07T22:46:05.100Z,70.58
2022-09-07T22:48:33.011Z,70.82
2022-09-07T22:51:00.626Z,70.73
2022-09-07T22:53:29.125Z,70.50
2022-09-07T22:55:56.688Z,70.76
2022-09-07T22:58:24.064Z,71.22
2022-09-07T23:00:51.644Z,70.61
2022-09-07T23:03:19.185Z,70.80
2022-09-07T23:05:47.019Z,70.83
2022-09-07T23:08:14.386Z,71.23
2022-09-07T23:10:41.855Z,70.75
2022-09-07T23:13:16.689Z,71.21
2022-09-07T23:15:44.866Z,71.04
2022-09-07T23:18:16.762Z,70.65
2022-09-07T23:20:44.073Z,71.34
2022-09-07T23:23:13.389Z,70.84
2022-09-07T23:25:41.486Z,71.26
2022-09-07T23:28:12.511Z,71.28
2022-09-07T23:30:43.314Z,71.30
2022-09-07T23:33:10.506Z,71.77
2022-09-07T23:35:37.846Z,72.31
2022-09-07T23:38:05.443Z,72.80
2022-09-07T23:40:34.399Z,72.46
2022-09-07T23:43:01.769Z,72.73
2022-09-07T23:45:29.271Z,72.05
2022-09-07T23:47:56.416Z,71.64
2022-09-07T23:50:23.550Z,70.14
2022-09-07T23:52:51.358Z,70.87
2022-09-07T23:55:18.587Z,71.53
2022-09-07T23:57:45.722Z,71.70
